createdAt,value
2018-04-27T00:00:43.822Z,0.00
2018-04-27T00:01:43.806Z,0.00
2018-04-27T00:02:43.788Z,0.00
2018-04-27T00:03:43.764Z,0.00
2018-04-27T00:04:43.753Z,0.00
2018-04-27T00:05:43.726Z,0.00
2018-04-27T00:06:43.710Z,0.00
2018-04-27T00:07:43.705Z,0.00
2018-04-27T00:08:43.668Z,0.00
2018-04-27T00:09:43.649Z,0.00
2018-04-27T00:10:43.632Z,0.00
2018-04-27T00:11:43.611Z,0.00
2018-04-27T00:12:43.592Z,0.00
2018-04-27T00:13:43.581Z,0.00
2018-04-27T00:14:43.553Z,0.00
2018-04-27T00:15:43.538Z,0.00
2018-04-27T00:16:43.516Z,0.00
2018-04-27T00:17:43.497Z,0.00
2018-04-27T00:18:43.476Z,0.00
2018-04-27T00:19:43.456Z,0.00
2018-04-27T00:20:43.439Z,0.00
2018-04-27T00:21:43.423Z,0.00
2018-04-27T00:22:43.403Z,0.00
2018-04-27T00:23:43.380Z,0.00
2018-04-27T00:24:43.362Z,0.00
2018-04-27T00:25:43.351Z,0.00
2018-04-27T00:26:43.322Z,0.00
2018-04-27T00:27:43.303Z,0.00
2018-04-27T00:28:43.283Z,0.00
2018-04-27T00:29:43.268Z,0.00
2018-04-27T00:30:43.250Z,0.00
2018-04-27T00:31:43.225Z,0.00
2018-04-27T00:32:43.207Z,0.00
2018-04-27T00:33:43.189Z,0.00
2018-04-27T00:34:43.169Z,0.00
2018-04-27T00:35:43.150Z,0.00
2018-04-27T00:36:43.135Z,0.00
2018-04-27T00:37:43.112Z,0.00
2018-04-27T00:38:43.167Z,0.00
2018-04-27T00:39:43.080Z,0.00
2018-04-27T00:40:43.053Z,0.00
2018-04-27T00:41:43.111Z,0.00
2018-04-27T00:42:43.015Z,0.00
2018-04-27T00:43:42.999Z,0.00
2018-04-27T00:44:42.976Z,0.00
2018-04-27T00:45:42.965Z,0.00
2018-04-27T00:46:42.938Z,0.00
2018-04-27T00:47:42.919Z,0.00
2018-04-27T00:48:42.899Z,0.00
2018-04-27T00:49:42.881Z,0.00
2018-04-27T00:50:42.862Z,0.00
2018-04-27T00:51:42.846Z,0.00
2018-04-27T00:52:42.823Z,0.00
2018-04-27T00:53:42.803Z,0.00
2018-04-27T00:54:42.782Z,0.00
2018-04-27T00:55:42.764Z,0.00
2018-04-27T00:56:42.745Z,0.00
2018-04-27T00:57:42.726Z,0.00
2018-04-27T00:58:42.707Z,0.00
2018-04-27T00:59:42.688Z,0.00
2018-04-27T01:00:42.669Z,0.00
2018-04-27T01:01:42.649Z,0.00
2018-04-27T01:02:42.630Z,0.00
2018-04-27T01:03:42.615Z,0.00
2018-04-27T01:04:42.592Z,0.00
2018-04-27T01:05:42.583Z,0.00
2018-04-27T01:06:42.556Z,0.00
2018-04-27T01:07:42.533Z,0.00
2018-04-27T01:08:42.515Z,0.00
2018-04-27T01:09:42.496Z,0.00
2018-04-27T01:10:42.474Z,0.00
2018-04-27T01:11:42.456Z,0.00
2018-04-27T01:12:42.436Z,0.00
2018-04-27T01:13:42.419Z,0.00
2018-04-27T01:14:42.398Z,0.00
2018-04-27T01:15:42.378Z,0.00
2018-04-27T01:16:42.360Z,0.00
2018-04-27T01:17:42.348Z,0.00
2018-04-27T01:18:42.320Z,0.00
2018-04-27T01:19:42.301Z,0.00
2018-04-27T01:20:42.282Z,0.00
2018-04-27T01:21:42.262Z,0.00
2018-04-27T01:22:42.241Z,0.00
2018-04-27T01:23:42.223Z,0.00
2018-04-27T01:24:42.204Z,0.00
2018-04-27T01:25:42.182Z,0.00
2018-04-27T01:26:42.164Z,0.00
2018-04-27T01:27:42.159Z,0.00
2018-04-27T01:28:42.133Z,0.00
2018-04-27T01:29:42.104Z,0.00
2018-04-27T01:30:42.085Z,0.00
2018-04-27T01:31:42.069Z,0.00
2018-04-27T01:32:42.053Z,0.00
2018-04-27T01:33:42.026Z,0.00
2018-04-27T01:34:42.004Z,0.00
2018-04-27T01:35:41.987Z,0.00
2018-04-27T01:36:41.967Z,0.00
2018-04-27T01:37:41.947Z,0.00
2018-04-27T01:38:41.927Z,0.00
2018-04-27T01:39:41.908Z,0.00
2018-04-27T01:40:41.888Z,0.00
2018-04-27T01:41:41.869Z,0.00
2018-04-27T01:42:41.848Z,0.00
2018-04-27T01:43:41.830Z,0.00
2018-04-27T01:44:41.811Z,0.00
2018-04-27T01:45:41.791Z,0.00
2018-04-27T01:46:41.772Z,0.00
2018-04-27T01:47:41.756Z,0.00
2018-04-27T01:48:41.734Z,0.00
2018-04-27T01:49:41.714Z,0.00
2018-04-27T01:50:41.692Z,0.00
2018-04-27T01:51:41.673Z,0.00
2018-04-27T01:52:41.654Z,0.00
2018-04-27T01:53:41.637Z,0.00
2018-04-27T01:54:41.624Z,0.00
2018-04-27T01:55:41.596Z,0.00
2018-04-27T01:56:41.581Z,0.00
2018-04-27T01:57:41.559Z,0.00
2018-04-27T01:58:41.536Z,0.00
2018-04-27T01:59:41.517Z,0.00
2018-04-27T02:00:41.500Z,0.00
2018-04-27T02:01:41.481Z,0.00
2018-04-27T02:02:41.465Z,0.00
2018-04-27T02:03:41.440Z,0.00
2018-04-27T02:04:41.417Z,0.00
2018-04-27T02:05:41.401Z,0.00
2018-04-27T02:06:41.380Z,0.00
2018-04-27T02:07:41.370Z,0.00
2018-04-27T02:08:41.365Z,0.00
2018-04-27T02:09:41.322Z,0.00
2018-04-27T02:10:41.299Z,0.00
2018-04-27T02:11:41.281Z,0.00
2018-04-27T02:12:41.266Z,0.00
2018-04-27T02:13:41.242Z,0.00
2018-04-27T02:14:41.224Z,0.00
2018-04-27T02:15:41.202Z,0.00
2018-04-27T02:16:41.183Z,0.00
2018-04-27T02:17:41.163Z,0.00
2018-04-27T02:18:41.143Z,0.00
2018-04-27T02:19:41.121Z,0.00
2018-04-27T02:20:41.109Z,0.00
2018-04-27T02:21:41.084Z,0.00
2018-04-27T02:22:41.064Z,0.00
2018-04-27T02:23:41.045Z,0.00
2018-04-27T02:24:41.032Z,0.00
2018-04-27T02:25:41.004Z,0.00
2018-04-27T02:26:40.984Z,0.00
2018-04-27T02:27:40.963Z,0.00
2018-04-27T02:28:40.941Z,0.00
2018-04-27T02:29:40.932Z,0.00
2018-04-27T02:30:40.908Z,0.00
2018-04-27T02:31:40.891Z,0.00
2018-04-27T02:32:40.862Z,0.00
2018-04-27T02:33:40.852Z,0.00
2018-04-27T02:34:40.825Z,0.00
2018-04-27T02:35:40.801Z,0.00
2018-04-27T02:36:40.785Z,0.00
2018-04-27T02:37:40.763Z,0.00
2018-04-27T02:38:40.741Z,0.00
2018-04-27T02:39:40.720Z,0.00
2018-04-27T02:40:40.700Z,0.00
2018-04-27T02:41:40.689Z,0.00
2018-04-27T02:42:40.662Z,0.00
2018-04-27T02:43:40.643Z,0.00
2018-04-27T02:44:40.620Z,0.00
2018-04-27T02:45:40.600Z,0.00
2018-04-27T02:46:40.580Z,0.00
2018-04-27T02:47:40.558Z,0.00
2018-04-27T02:48:40.540Z,0.00
2018-04-27T02:49:40.521Z,0.00
2018-04-27T02:50:40.500Z,0.00
2018-04-27T02:51:40.479Z,0.00
2018-04-27T02:52:40.461Z,0.00
2018-04-27T02:53:40.441Z,0.00
2018-04-27T02:54:40.419Z,0.00
2018-04-27T02:55:40.400Z,0.00
2018-04-27T02:56:40.384Z,0.00
2018-04-27T02:57:40.361Z,0.00
2018-04-27T02:58:40.339Z,0.00
2018-04-27T02:59:40.319Z,0.00
2018-04-27T03:00:40.300Z,0.00
2018-04-27T03:01:40.289Z,0.00
2018-04-27T03:02:40.258Z,0.00
2018-04-27T03:03:40.239Z,0.00
2018-04-27T03:04:40.225Z,0.00
2018-04-27T03:05:40.201Z,0.00
2018-04-27T03:06:40.185Z,0.00
2018-04-27T03:07:40.159Z,0.00
2018-04-27T03:08:40.147Z,0.00
2018-04-27T03:09:40.229Z,0.00
2018-04-27T03:10:40.099Z,0.00
2018-04-27T03:11:40.079Z,0.00
2018-04-27T03:12:40.062Z,0.00
2018-04-27T03:13:40.040Z,0.00
2018-04-27T03:14:40.018Z,0.00
2018-04-27T03:15:39.997Z,0.00
2018-04-27T03:16:39.986Z,0.00
2018-04-27T03:17:39.957Z,0.00
2018-04-27T03:18:39.938Z,0.00
2018-04-27T03:19:39.921Z,0.00
2018-04-27T03:20:39.897Z,0.00
2018-04-27T03:21:39.880Z,0.00
2018-04-27T03:22:39.859Z,0.00
2018-04-27T03:23:39.908Z,0.00
2018-04-27T03:24:39.818Z,0.00
2018-04-27T03:25:39.802Z,0.00
2018-04-27T03:26:39.775Z,0.00
2018-04-27T03:27:39.756Z,0.00
2018-04-27T03:28:39.741Z,0.00
2018-04-27T03:29:39.715Z,0.00
2018-04-27T03:30:39.696Z,0.00
2018-04-27T03:31:39.681Z,0.00
2018-04-27T03:32:39.662Z,0.00
2018-04-27T03:33:39.634Z,0.00
2018-04-27T03:34:39.612Z,0.00
2018-04-27T03:35:39.592Z,0.00
2018-04-27T03:36:39.571Z,0.00
2018-04-27T03:37:39.552Z,0.00
2018-04-27T03:38:39.529Z,0.00
2018-04-27T03:39:39.610Z,0.00
2018-04-27T03:40:39.491Z,0.00
2018-04-27T03:41:39.470Z,0.00
2018-04-27T03:42:39.455Z,0.00
2018-04-27T03:43:39.430Z,0.00
2018-04-27T03:44:39.408Z,0.00
2018-04-27T03:45:39.389Z,0.00
2018-04-27T03:46:39.375Z,0.00
2018-04-27T03:47:39.347Z,0.00
2018-04-27T03:48:39.326Z,0.00
2018-04-27T03:49:39.307Z,0.00
2018-04-27T03:50:39.287Z,0.00
2018-04-27T03:51:39.266Z,0.00
2018-04-27T03:52:39.248Z,0.00
2018-04-27T03:53:39.226Z,0.00
2018-04-27T03:54:39.205Z,0.00
2018-04-27T03:55:39.185Z,0.00
2018-04-27T03:56:39.168Z,0.00
2018-04-27T03:57:39.145Z,0.00
2018-04-27T03:58:39.125Z,0.00
2018-04-27T03:59:39.106Z,0.00
2018-04-27T04:00:39.084Z,5.63
2018-04-27T04:01:39.073Z,5.63
2018-04-27T04:02:39.044Z,5.63
2018-04-27T04:03:39.022Z,5.63
2018-04-27T04:04:39.005Z,5.63
2018-04-27T04:05:38.986Z,5.63
2018-04-27T04:06:38.985Z,5.63
2018-04-27T04:07:38.946Z,5.63
2018-04-27T04:08:38.922Z,11.25
2018-04-27T04:09:38.903Z,11.25
2018-04-27T04:10:38.881Z,11.25
2018-04-27T04:11:38.863Z,11.25
2018-04-27T04:12:38.839Z,11.25
2018-04-27T04:13:38.870Z,11.25
2018-04-27T04:14:38.798Z,11.25
2018-04-27T04:15:38.779Z,16.88
2018-04-27T04:16:38.759Z,16.88
2018-04-27T04:17:38.738Z,16.88
2018-04-27T04:18:38.723Z,16.88
2018-04-27T04:19:38.697Z,16.88
2018-04-27T04:20:38.685Z,16.88
2018-04-27T04:21:38.657Z,22.50
2018-04-27T04:22:38.634Z,22.50
2018-04-27T04:23:38.623Z,22.50
2018-04-27T04:24:38.596Z,22.50
2018-04-27T04:25:38.592Z,28.13
2018-04-27T04:26:38.554Z,28.13
2018-04-27T04:27:38.534Z,28.13
2018-04-27T04:28:38.664Z,28.13
2018-04-27T04:29:38.493Z,33.75
2018-04-27T04:30:38.471Z,33.75
2018-04-27T04:31:38.464Z,33.75
2018-04-27T04:32:38.435Z,33.75
2018-04-27T04:33:38.417Z,39.38
2018-04-27T04:34:38.390Z,39.38
2018-04-27T04:35:38.379Z,39.38
2018-04-27T04:36:38.352Z,39.38
2018-04-27T04:37:38.330Z,45.00
2018-04-27T04:38:38.309Z,45.00
2018-04-27T04:39:38.294Z,45.00
2018-04-27T04:40:38.269Z,50.63
2018-04-27T04:41:38.249Z,50.63
2018-04-27T04:42:38.228Z,50.63
2018-04-27T04:43:38.211Z,50.63
2018-04-27T04:44:38.191Z,56.25
2018-04-27T04:45:38.169Z,56.25
2018-04-27T04:46:38.156Z,56.25
2018-04-27T04:47:38.132Z,61.88
2018-04-27T04:48:38.107Z,61.88
2018-04-27T04:49:38.088Z,61.88
2018-04-27T04:50:38.217Z,67.50
2018-04-27T04:51:38.047Z,67.50
2018-04-27T04:52:38.092Z,73.13
2018-04-27T04:53:38.007Z,73.13
2018-04-27T04:54:37.987Z,78.75
2018-04-27T04:55:37.968Z,84.38
2018-04-27T04:56:38.749Z,90.00
2018-04-27T04:57:37.938Z,95.63
2018-04-27T04:58:37.911Z,101.25
2018-04-27T04:59:37.887Z,106.88
2018-04-27T05:00:37.870Z,106.88
2018-04-27T05:01:37.846Z,106.88
2018-04-27T05:02:37.825Z,106.88
2018-04-27T05:03:37.805Z,112.50
2018-04-27T05:04:37.785Z,112.50
2018-04-27T05:05:37.766Z,112.50
2018-04-27T05:06:37.744Z,112.50
2018-04-27T05:07:37.728Z,118.13
2018-04-27T05:08:37.707Z,123.75
2018-04-27T05:09:37.685Z,129.38
2018-04-27T05:10:37.765Z,129.38
2018-04-27T05:11:37.647Z,135.00
2018-04-27T05:12:37.625Z,135.00
2018-04-27T05:13:37.608Z,146.25
2018-04-27T05:14:37.593Z,140.63
2018-04-27T05:15:37.564Z,146.25
2018-04-27T05:16:37.544Z,146.25
2018-04-27T05:17:37.531Z,151.88
2018-04-27T05:18:37.503Z,151.88
2018-04-27T05:19:37.483Z,157.50
2018-04-27T05:20:37.464Z,163.13
2018-04-27T05:21:37.444Z,163.13
2018-04-27T05:22:37.424Z,174.38
2018-04-27T05:23:37.404Z,180.00
2018-04-27T05:24:37.459Z,208.13
2018-04-27T05:25:37.361Z,270.00
2018-04-27T05:26:37.352Z,354.38
2018-04-27T05:27:37.335Z,455.63
2018-04-27T05:28:37.307Z,630.00
2018-04-27T05:29:37.383Z,511.88
2018-04-27T05:30:37.269Z,607.50
2018-04-27T05:31:37.245Z,1029.38
2018-04-27T05:32:37.223Z,1012.50
2018-04-27T05:33:37.205Z,607.50
2018-04-27T05:34:37.182Z,1260.00
2018-04-27T05:35:37.166Z,1423.13
2018-04-27T05:36:37.147Z,1417.50
2018-04-27T05:37:37.128Z,1344.38
2018-04-27T05:38:37.124Z,1395.00
2018-04-27T05:39:37.090Z,1299.38
2018-04-27T05:40:37.145Z,1243.13
2018-04-27T05:41:37.056Z,1378.13
2018-04-27T05:42:37.033Z,1434.38
2018-04-27T05:43:37.022Z,1490.63
2018-04-27T05:44:37.003Z,1361.25
2018-04-27T05:45:36.991Z,1608.75
2018-04-27T05:46:36.969Z,1642.50
2018-04-27T05:47:36.955Z,1603.13
2018-04-27T05:48:36.938Z,1575.00
2018-04-27T05:49:36.973Z,1501.88
2018-04-27T05:50:36.906Z,1434.38
2018-04-27T05:51:36.893Z,1546.88
2018-04-27T05:52:36.879Z,1794.38
2018-04-27T05:53:36.869Z,1563.75
2018-04-27T05:54:36.850Z,1861.88
2018-04-27T05:55:36.884Z,1766.25
2018-04-27T05:56:36.825Z,1738.13
2018-04-27T05:57:36.810Z,1749.38
2018-04-27T05:58:36.794Z,1845.00
2018-04-27T05:59:36.782Z,1383.75
2018-04-27T06:00:36.770Z,1473.75
2018-04-27T06:01:36.764Z,1299.38
2018-04-27T06:02:36.754Z,1125.00
2018-04-27T06:03:36.733Z,1417.50
2018-04-27T06:04:36.785Z,1321.88
2018-04-27T06:05:36.714Z,1434.38
2018-04-27T06:06:36.704Z,1468.13
2018-04-27T06:07:36.691Z,1755.00
2018-04-27T06:08:36.676Z,1670.63
2018-04-27T06:09:36.663Z,1704.38
2018-04-27T06:10:36.652Z,1642.50
2018-04-27T06:11:36.639Z,1693.13
2018-04-27T06:12:36.632Z,1653.75
2018-04-27T06:13:36.618Z,1170.00
2018-04-27T06:14:36.607Z,1299.38
2018-04-27T06:15:36.598Z,922.50
2018-04-27T06:16:36.586Z,1276.88
2018-04-27T06:17:36.584Z,1186.88
2018-04-27T06:18:36.565Z,911.25
2018-04-27T06:19:36.561Z,871.88
2018-04-27T06:20:36.552Z,939.38
2018-04-27T06:21:36.536Z,759.38
2018-04-27T06:22:36.522Z,725.63
2018-04-27T06:23:36.515Z,933.75
2018-04-27T06:24:36.501Z,1181.25
2018-04-27T06:25:36.492Z,1378.13
2018-04-27T06:26:36.482Z,1693.13
2018-04-27T06:27:36.470Z,585.00
2018-04-27T06:28:36.469Z,635.63
2018-04-27T06:29:36.458Z,478.13
2018-04-27T06:30:36.441Z,495.00
2018-04-27T06:31:36.428Z,511.88
2018-04-27T06:32:36.418Z,545.63
2018-04-27T06:33:36.406Z,556.88
2018-04-27T06:34:36.395Z,708.75
2018-04-27T06:35:36.385Z,832.50
2018-04-27T06:36:36.373Z,933.75
2018-04-27T06:37:36.365Z,765.00
2018-04-27T06:38:36.349Z,905.63
2018-04-27T06:39:36.339Z,1074.38
2018-04-27T06:40:36.327Z,1366.88
2018-04-27T06:41:36.315Z,635.63
2018-04-27T06:42:36.302Z,1181.25
2018-04-27T06:43:36.290Z,888.75
2018-04-27T06:44:36.286Z,1096.88
2018-04-27T06:45:36.265Z,517.50
2018-04-27T06:46:36.260Z,675.00
2018-04-27T06:47:36.242Z,596.25
2018-04-27T06:48:36.229Z,697.50
2018-04-27T06:49:36.217Z,759.38
2018-04-27T06:50:36.204Z,466.88
2018-04-27T06:51:36.213Z,433.13
2018-04-27T06:52:36.188Z,511.88
2018-04-27T06:53:36.167Z,500.63
2018-04-27T06:54:36.154Z,433.13
2018-04-27T06:55:36.141Z,483.75
2018-04-27T06:56:36.131Z,495.00
2018-04-27T06:57:36.117Z,489.38
2018-04-27T06:58:36.103Z,500.63
2018-04-27T06:59:36.099Z,511.88
2018-04-27T07:00:36.078Z,534.38
2018-04-27T07:01:36.069Z,433.13
2018-04-27T07:02:36.051Z,427.50
2018-04-27T07:03:36.038Z,421.88
2018-04-27T07:04:36.025Z,438.75
2018-04-27T07:05:36.012Z,483.75
2018-04-27T07:06:35.996Z,444.38
2018-04-27T07:07:35.991Z,450.00
2018-04-27T07:08:35.971Z,466.88
2018-04-27T07:09:35.962Z,506.25
2018-04-27T07:10:35.945Z,472.50
2018-04-27T07:11:35.994Z,438.75
2018-04-27T07:12:35.932Z,438.75
2018-04-27T07:13:35.904Z,450.00
2018-04-27T07:14:35.888Z,478.13
2018-04-27T07:15:35.876Z,461.25
2018-04-27T07:16:35.869Z,461.25
2018-04-27T07:17:35.848Z,472.50
2018-04-27T07:18:35.834Z,478.13
2018-04-27T07:19:35.820Z,483.75
2018-04-27T07:20:35.807Z,495.00
2018-04-27T07:21:35.795Z,500.63
2018-04-27T07:22:35.780Z,500.63
2018-04-27T07:23:35.765Z,506.25
2018-04-27T07:24:35.753Z,506.25
2018-04-27T07:25:35.738Z,523.13
2018-04-27T07:26:35.732Z,506.25
2018-04-27T07:27:35.711Z,545.63
2018-04-27T07:28:35.696Z,523.13
2018-04-27T07:29:35.691Z,585.00
2018-04-27T07:30:35.668Z,534.38
2018-04-27T07:31:35.654Z,500.63
2018-04-27T07:32:35.640Z,500.63
2018-04-27T07:33:35.626Z,517.50
2018-04-27T07:34:35.620Z,534.38
2018-04-27T07:35:35.608Z,540.00
2018-04-27T07:36:35.583Z,534.38
2018-04-27T07:37:35.569Z,585.00
2018-04-27T07:38:35.554Z,601.88
2018-04-27T07:39:35.583Z,579.38
2018-04-27T07:40:35.529Z,939.38
2018-04-27T07:41:35.514Z,686.25
2018-04-27T07:42:35.499Z,731.25
2018-04-27T07:43:35.491Z,973.13
2018-04-27T07:44:35.470Z,1811.25
2018-04-27T07:45:35.457Z,641.25
2018-04-27T07:46:35.442Z,2053.13
2018-04-27T07:47:35.428Z,1940.63
2018-04-27T07:48:35.415Z,1130.63
2018-04-27T07:49:35.400Z,1130.63
2018-04-27T07:50:35.387Z,826.88
2018-04-27T07:51:35.377Z,551.25
2018-04-27T07:52:35.375Z,551.25
2018-04-27T07:53:35.348Z,551.25
2018-04-27T07:54:35.336Z,545.63
2018-04-27T07:55:35.323Z,556.88
2018-04-27T07:56:35.307Z,573.75
2018-04-27T07:57:35.302Z,590.63
2018-04-27T07:58:35.289Z,601.88
2018-04-27T07:59:35.277Z,1040.63
2018-04-27T08:00:35.264Z,1080.00
2018-04-27T08:01:35.243Z,736.88
2018-04-27T08:02:35.235Z,815.63
2018-04-27T08:03:35.223Z,826.88
2018-04-27T08:04:35.204Z,781.88
2018-04-27T08:05:35.190Z,714.38
2018-04-27T08:06:35.184Z,720.00
2018-04-27T08:07:35.163Z,804.38
2018-04-27T08:08:35.152Z,939.38
2018-04-27T08:09:35.139Z,748.13
2018-04-27T08:10:35.129Z,714.38
2018-04-27T08:11:35.116Z,669.38
2018-04-27T08:12:35.109Z,866.25
2018-04-27T08:13:35.089Z,714.38
2018-04-27T08:14:35.079Z,686.25
2018-04-27T08:15:35.071Z,765.00
2018-04-27T08:16:35.064Z,675.00
2018-04-27T08:17:35.037Z,748.13
2018-04-27T08:18:35.064Z,675.00
2018-04-27T08:19:35.019Z,675.00
2018-04-27T08:20:35.006Z,708.75
2018-04-27T08:21:34.986Z,708.75
2018-04-27T08:22:34.972Z,708.75
2018-04-27T08:23:34.976Z,720.00
2018-04-27T08:24:35.031Z,731.25
2018-04-27T08:25:34.935Z,736.88
2018-04-27T08:26:34.928Z,753.75
2018-04-27T08:27:34.917Z,765.00
2018-04-27T08:28:34.904Z,776.25
2018-04-27T08:29:34.884Z,798.75
2018-04-27T08:30:34.870Z,804.38
2018-04-27T08:31:34.862Z,815.63
2018-04-27T08:32:34.846Z,826.88
2018-04-27T08:33:34.833Z,843.75
2018-04-27T08:34:34.824Z,849.38
2018-04-27T08:35:34.808Z,855.00
2018-04-27T08:36:34.794Z,866.25
2018-04-27T08:37:34.781Z,866.25
2018-04-27T08:38:34.768Z,855.00
2018-04-27T08:39:34.761Z,849.38
2018-04-27T08:40:34.742Z,838.13
2018-04-27T08:41:34.730Z,838.13
2018-04-27T08:42:34.715Z,838.13
2018-04-27T08:43:34.704Z,832.50
2018-04-27T08:44:34.700Z,826.88
2018-04-27T08:45:34.679Z,821.25
2018-04-27T08:46:34.674Z,804.38
2018-04-27T08:47:34.656Z,804.38
2018-04-27T08:48:34.641Z,815.63
2018-04-27T08:49:34.630Z,838.13
2018-04-27T08:50:34.776Z,826.88
2018-04-27T08:51:34.603Z,826.88
2018-04-27T08:52:34.607Z,826.88
2018-04-27T08:53:34.578Z,804.38
2018-04-27T08:54:34.565Z,776.25
2018-04-27T08:55:34.561Z,765.00
2018-04-27T08:56:34.540Z,753.75
2018-04-27T08:57:34.535Z,748.13
2018-04-27T08:58:34.516Z,753.75
2018-04-27T08:59:34.501Z,759.38
2018-04-27T09:00:34.489Z,781.88
2018-04-27T09:01:34.479Z,804.38
2018-04-27T09:02:34.464Z,821.25
2018-04-27T09:03:34.451Z,815.63
2018-04-27T09:04:34.438Z,838.13
2018-04-27T09:05:34.428Z,849.38
2018-04-27T09:06:34.417Z,866.25
2018-04-27T09:07:34.400Z,855.00
2018-04-27T09:08:34.389Z,855.00
2018-04-27T09:09:34.390Z,866.25
2018-04-27T09:10:34.364Z,883.13
2018-04-27T09:11:34.361Z,905.63
2018-04-27T09:12:34.341Z,916.88
2018-04-27T09:13:34.326Z,939.38
2018-04-27T09:14:34.316Z,950.63
2018-04-27T09:15:34.302Z,950.63
2018-04-27T09:16:34.298Z,995.63
2018-04-27T09:17:34.275Z,1057.50
2018-04-27T09:18:34.262Z,1068.75
2018-04-27T09:19:34.250Z,1063.13
2018-04-27T09:20:34.239Z,1096.88
2018-04-27T09:21:34.249Z,1119.38
2018-04-27T09:22:34.212Z,1271.25
2018-04-27T09:23:34.202Z,1192.50
2018-04-27T09:24:34.191Z,1231.88
2018-04-27T09:25:34.178Z,1209.38
2018-04-27T09:26:34.164Z,1226.25
2018-04-27T09:27:34.170Z,1338.75
2018-04-27T09:28:34.143Z,1198.13
2018-04-27T09:29:34.129Z,1175.63
2018-04-27T09:30:34.116Z,1231.88
2018-04-27T09:31:34.106Z,1411.88
2018-04-27T09:32:34.094Z,1884.38
2018-04-27T09:33:34.086Z,2761.88
2018-04-27T09:34:34.070Z,2086.88
2018-04-27T09:35:34.064Z,1912.50
2018-04-27T09:36:34.051Z,1828.13
2018-04-27T09:37:34.038Z,1591.88
2018-04-27T09:38:34.027Z,1873.13
2018-04-27T09:39:34.017Z,1738.13
2018-04-27T09:40:34.004Z,1771.88
2018-04-27T09:41:33.994Z,1726.88
2018-04-27T09:42:34.003Z,1603.13
2018-04-27T09:43:33.979Z,1929.38
2018-04-27T09:44:33.972Z,1704.38
2018-04-27T09:45:33.963Z,1563.75
2018-04-27T09:46:33.945Z,1749.38
2018-04-27T09:47:33.934Z,1546.88
2018-04-27T09:48:33.926Z,1395.00
2018-04-27T09:49:33.916Z,1293.75
2018-04-27T09:50:33.906Z,1293.75
2018-04-27T09:51:33.898Z,1350.00
2018-04-27T09:52:33.887Z,1530.00
2018-04-27T09:53:33.882Z,2053.13
2018-04-27T09:54:33.878Z,1546.88
2018-04-27T09:55:33.862Z,1642.50
2018-04-27T09:56:33.851Z,2328.75
2018-04-27T09:57:33.857Z,1732.50
2018-04-27T09:58:33.833Z,1603.13
2018-04-27T09:59:33.823Z,1490.63
2018-04-27T10:00:33.825Z,1811.25
2018-04-27T10:01:33.813Z,1681.88
2018-04-27T10:02:33.798Z,1659.38
2018-04-27T10:03:33.787Z,1597.50
2018-04-27T10:04:33.778Z,1676.25
2018-04-27T10:05:33.777Z,1648.13
2018-04-27T10:06:33.759Z,1693.13
2018-04-27T10:07:33.760Z,1648.13
2018-04-27T10:08:33.751Z,1558.13
2018-04-27T10:09:33.735Z,1462.50
2018-04-27T10:10:33.726Z,1395.00
2018-04-27T10:11:33.718Z,1428.75
2018-04-27T10:12:33.712Z,1546.88
2018-04-27T10:13:33.702Z,1648.13
2018-04-27T10:14:33.694Z,1614.38
2018-04-27T10:15:33.685Z,1530.00
2018-04-27T10:16:33.676Z,1850.63
2018-04-27T10:17:33.669Z,1760.63
2018-04-27T10:18:33.664Z,1625.63
2018-04-27T10:19:33.652Z,1777.50
2018-04-27T10:20:33.680Z,1901.25
2018-04-27T10:21:33.637Z,1845.00
2018-04-27T10:22:33.638Z,2553.75
2018-04-27T10:23:33.635Z,2390.63
2018-04-27T10:24:33.613Z,2238.75
2018-04-27T10:25:33.609Z,2098.13
2018-04-27T10:26:33.599Z,2154.38
2018-04-27T10:27:33.590Z,2295.00
2018-04-27T10:28:33.584Z,2205.00
2018-04-27T10:29:33.576Z,1946.25
2018-04-27T10:30:33.571Z,1608.75
2018-04-27T10:31:33.565Z,2103.75
2018-04-27T10:32:33.555Z,1766.25
2018-04-27T10:33:33.549Z,1738.13
2018-04-27T10:34:33.540Z,1715.63
2018-04-27T10:35:33.534Z,1726.88
2018-04-27T10:36:33.532Z,1788.75
2018-04-27T10:37:33.521Z,1906.88
2018-04-27T10:38:33.512Z,1991.25
2018-04-27T10:39:33.511Z,2086.88
2018-04-27T10:40:33.517Z,2199.38
2018-04-27T10:41:33.495Z,2621.25
2018-04-27T10:42:33.486Z,2289.38
2018-04-27T10:43:33.489Z,2092.50
2018-04-27T10:44:33.484Z,1839.38
2018-04-27T10:45:33.469Z,1749.38
2018-04-27T10:46:33.465Z,1715.63
2018-04-27T10:47:33.458Z,1833.75
2018-04-27T10:48:33.451Z,2013.75
2018-04-27T10:49:33.446Z,2345.63
2018-04-27T10:50:33.446Z,2188.13
2018-04-27T10:51:33.433Z,1918.13
2018-04-27T10:52:33.433Z,1693.13
2018-04-27T10:53:33.422Z,2193.75
2018-04-27T10:54:33.424Z,1873.13
2018-04-27T10:55:33.410Z,1305.00
2018-04-27T10:56:33.407Z,1636.88
2018-04-27T10:57:33.398Z,1260.00
2018-04-27T10:58:33.391Z,973.13
2018-04-27T10:59:33.439Z,1209.38
2018-04-27T11:00:33.379Z,1861.88
2018-04-27T11:01:33.378Z,1833.75
2018-04-27T11:02:33.369Z,2002.50
2018-04-27T11:03:33.359Z,1968.75
2018-04-27T11:04:33.353Z,2047.50
2018-04-27T11:05:33.347Z,1057.50
2018-04-27T11:06:33.340Z,1788.75
2018-04-27T11:07:33.334Z,793.13
2018-04-27T11:08:33.390Z,1597.50
2018-04-27T11:09:33.329Z,742.50
2018-04-27T11:10:33.319Z,1260.00
2018-04-27T11:11:33.315Z,1524.38
2018-04-27T11:12:33.314Z,1333.13
2018-04-27T11:13:33.293Z,1428.75
2018-04-27T11:14:33.288Z,1136.25
2018-04-27T11:15:33.289Z,1327.50
2018-04-27T11:16:33.273Z,1355.63
2018-04-27T11:17:33.265Z,1136.25
2018-04-27T11:18:33.256Z,905.63
2018-04-27T11:19:33.300Z,787.50
2018-04-27T11:20:33.244Z,748.13
2018-04-27T11:21:33.234Z,759.38
2018-04-27T11:22:33.227Z,753.75
2018-04-27T11:23:33.227Z,736.88
2018-04-27T11:24:33.224Z,950.63
2018-04-27T11:25:33.205Z,956.25
2018-04-27T11:26:33.199Z,1130.63
2018-04-27T11:27:33.187Z,1091.25
2018-04-27T11:28:33.178Z,810.00
2018-04-27T11:29:33.184Z,748.13
2018-04-27T11:30:33.159Z,731.25
2018-04-27T11:31:33.157Z,703.13
2018-04-27T11:32:33.150Z,742.50
2018-04-27T11:33:33.139Z,1372.50
2018-04-27T11:34:33.122Z,1518.75
2018-04-27T11:35:33.113Z,1057.50
2018-04-27T11:36:33.119Z,1338.75
2018-04-27T11:37:33.097Z,1091.25
2018-04-27T11:38:33.085Z,1378.13
2018-04-27T11:39:33.075Z,1800.00
2018-04-27T11:40:33.069Z,1878.75
2018-04-27T11:41:33.067Z,1226.25
2018-04-27T11:42:33.058Z,2435.63
2018-04-27T11:43:33.042Z,900.00
2018-04-27T11:44:33.028Z,798.75
2018-04-27T11:45:33.021Z,821.25
2018-04-27T11:46:33.009Z,877.50
2018-04-27T11:47:33.000Z,984.38
2018-04-27T11:48:32.991Z,967.50
2018-04-27T11:49:33.052Z,922.50
2018-04-27T11:50:32.988Z,787.50
2018-04-27T11:51:32.962Z,866.25
2018-04-27T11:52:32.954Z,860.63
2018-04-27T11:53:32.948Z,838.13
2018-04-27T11:54:32.936Z,793.13
2018-04-27T11:55:32.925Z,781.88
2018-04-27T11:56:32.923Z,748.13
2018-04-27T11:57:32.915Z,720.00
2018-04-27T11:58:32.899Z,714.38
2018-04-27T11:59:32.887Z,714.38
2018-04-27T12:00:32.907Z,703.13
2018-04-27T12:01:32.869Z,742.50
2018-04-27T12:02:32.861Z,697.50
2018-04-27T12:03:32.850Z,691.88
2018-04-27T12:04:32.841Z,675.00
2018-04-27T12:05:32.837Z,669.38
2018-04-27T12:06:32.818Z,680.63
2018-04-27T12:07:32.813Z,669.38
2018-04-27T12:08:32.801Z,703.13
2018-04-27T12:09:32.790Z,748.13
2018-04-27T12:10:32.779Z,810.00
2018-04-27T12:11:32.771Z,753.75
2018-04-27T12:12:32.761Z,697.50
2018-04-27T12:13:32.750Z,613.13
2018-04-27T12:14:32.740Z,573.75
2018-04-27T12:15:32.750Z,551.25
2018-04-27T12:16:32.734Z,540.00
2018-04-27T12:17:32.793Z,556.88
2018-04-27T12:18:32.698Z,534.38
2018-04-27T12:19:32.688Z,523.13
2018-04-27T12:20:32.679Z,523.13
2018-04-27T12:21:32.671Z,590.63
2018-04-27T12:22:32.661Z,601.88
2018-04-27T12:23:32.647Z,635.63
2018-04-27T12:24:32.648Z,618.75
2018-04-27T12:25:32.633Z,596.25
2018-04-27T12:26:32.614Z,590.63
2018-04-27T12:27:32.607Z,601.88
2018-04-27T12:28:32.592Z,596.25
2018-04-27T12:29:32.581Z,607.50
2018-04-27T12:30:32.574Z,618.75
2018-04-27T12:31:32.597Z,613.13
2018-04-27T12:32:32.548Z,646.88
2018-04-27T12:33:32.538Z,675.00
2018-04-27T12:34:32.531Z,714.38
2018-04-27T12:35:32.515Z,714.38
2018-04-27T12:36:32.503Z,703.13
2018-04-27T12:37:32.510Z,725.63
2018-04-27T12:38:32.479Z,714.38
2018-04-27T12:39:32.468Z,675.00